This is the latest recevied weather packets stored in our database for station/object HB9TJM-8. If no packets are shown the sender has not sent any weather packets the latest 10 day(s).
| Time | Temp. | Humidity | Pressure | Rain* | Wind** | Luminosity | Snow |
|---|---|---|---|---|---|---|---|
| 1777695924 | 11.11° C | 70% | 1023.2 hPa | 0 mm | - | 4 W/m² | - |
| 1777695616 | 10.56° C | 71% | 1023.3 hPa | 0 mm | - | 3 W/m² | - |
| 1777695309 | 10.56° C | 72% | 1023.7 hPa | 0 mm | - | 2 W/m² | - |
| 1777695001 | 10.56° C | 72% | 1023.4 hPa | 0 mm | - | 1 W/m² | - |
| 1777694694 | 10.56° C | 73% | 1023.2 hPa | 0 mm | - | 0 W/m² | - |
| 1777694386 | 10.56° C | 73% | 1023.2 hPa | 0 mm | - | 0 W/m² | - |
| 1777694080 | 10.56° C | 72% | 1023.2 hPa | 0 mm | - | 0 W/m² | - |
| 1777693772 | 11.11° C | 69% | 1023.3 hPa | 0 mm | - | 0 W/m² | - |
| 1777693157 | 11.11° C | 69% | 1023.6 hPa | 0 mm | - | 0 W/m² | - |
| 1777692850 | 11.67° C | 68% | 1023.5 hPa | 0 mm | - | 0 W/m² | - |
| 1777692542 | 11.67° C | 67% | 1023.6 hPa | 0 mm | - | 0 W/m² | - |
| 1777692235 | 11.67° C | 66% | 1023.3 hPa | 0 mm | - | 0 W/m² | - |
| 1777691927 | 11.67° C | 66% | 1023.5 hPa | 0 mm | - | 0 W/m² | - |
| 1777691621 | 12.22° C | 64% | 1023.4 hPa | 0 mm | - | 0 W/m² | - |
| 1777691313 | 12.22° C | 64% | 1023.2 hPa | 0 mm | - | 0 W/m² | - |
| 1777690697 | 12.22° C | 64% | 1023.4 hPa | 0 mm | - | 0 W/m² | - |
| 1777690390 | 12.22° C | 64% | 1023.2 hPa | 0 mm | - | 0 W/m² | - |
| 1777690082 | 12.22° C | 64% | 1023.7 hPa | 0 mm | - | 0 W/m² | - |
| 1777689775 | 12.22° C | 63% | 1023.5 hPa | 0 mm | - | 0 W/m² | - |
| 1777689468 | 12.22° C | 63% | 1023.3 hPa | 0 mm | - | 0 W/m² | - |
| 1777689161 | 12.22° C | 63% | 1023.4 hPa | 0 mm | - | 0 W/m² | - |
| 1777688853 | 12.22° C | 62% | 1023.8 hPa | 0 mm | - | 0 W/m² | - |
| 1777688545 | 12.22° C | 61% | 1023.5 hPa | 0 mm | - | 0 W/m² | - |
| 1777674095 | 13.89° C | 51% | 1024 hPa | 0 mm | - | 0 W/m² | - |
| 1777673787 | 13.89° C | 50% | 1024.6 hPa | 0 mm | - | 0 W/m² | - |
* Rain latest hour (hover to see other rain measurements)
** Current wind speed in m/s (hover to see current wind gust speed)